King Barley — 3FMD8 — position and weather

sailwx.info

Track history (hours):
 
Tides and Currents Weather Stations Pressure Air Temp Water Temp Dewpoint Dewpoint Depression Visibility Wind Speed Wind Dir Waves Ship Positions

King Barley

Last reported at 2018-May-19 14:35 UTC. Time now 2018-May-25 02:52 UTC.
Position N 22°30' E 119°03'.

Length 229 m; draft 13.3 m.

Type: Cargo ship. MMSI: 373049000.

Date/timePositionNaut miles runAvg speedWind from/ knotsBaromVisibWave heightAir tempDewpointWater temp
2018-May-19 14:35N 22°30' E 119°03'713.1
2018-May-19 14:04N 22°25' E 118°58'113.3
2018-May-19 14:00N 22°24' E 118°57'  
2018-May-14 13:26N 01°25' E 104°29'511.6
2018-May-14 12:59N 01°22' E 104°25'511.1
2018-May-14 12:29N 01°18' E 104°21'610.2
2018-May-14 11:55N 01°17' E 104°15'511.1
2018-May-14 11:29N 01°16' E 104°10'611.2
2018-May-14 10:58N 01°15' E 104°05'5 9.8
2018-May-14 10:31N 01°15' E 104°00'2 4.6
2018-May-14 09:59N 01°17' E 103°58'0 0.0
2018-May-14 09:30N 01°17' E 103°58'0 0.1
2018-May-14 08:51N 01°17' E 103°58'0 0.3
2018-May-14 08:25N 01°17' E 103°58'0 0.2
2018-May-14 07:43N 01°17' E 103°58'0 0.1
2018-May-14 07:28N 01°17' E 103°58'0 0.1
2018-May-14 06:58N 01°17' E 103°59'0 0.0
2018-May-14 06:22N 01°17' E 103°59'0 0.0
2018-May-14 05:58N 01°17' E 103°59'0 0.1
2018-May-14 05:19N 01°17' E 103°58'0 0.2
2018-May-14 04:58N 01°17' E 103°58'0 0.3
2018-May-14 04:30N 01°17' E 103°58'0 0.1
2018-May-14 03:37N 01°17' E 103°58'0 0.0
2018-May-14 03:28N 01°17' E 103°58'0 0.0
2018-May-14 02:55N 01°17' E 103°58'0 0.0
2018-May-14 02:25N 01°17' E 103°58'0 0.0
2018-May-14 01:57N 01°17' E 103°58'0 0.0
2018-May-14 01:25N 01°17' E 103°58'0 0.0
2018-May-14 00:43N 01°17' E 103°58'0 0.0
2018-May-14 00:28N 01°17' E 103°58'0 0.1
2018-May-13 23:52N 01°17' E 103°58'0 0.5
2018-May-13 23:30N 01°17' E 103°58'2 3.3
2018-May-13 23:00N 01°16' E 103°57'2 4.1
2018-May-13 22:30N 01°14' E 103°56'3 6.7
2018-May-13 22:00N 01°12' E 103°54'4 7.9
2018-May-13 21:30N 01°11' E 103°50'4 8.1
2018-May-13 21:00N 01°08' E 103°47'610.7
2018-May-13 20:29N 01°05' E 103°42'5 9.2
2018-May-13 19:59N 01°03' E 103°38'511.1
2018-May-13 19:30N 01°06' E 103°33'5 9.4
2018-May-13 18:59N 01°08' E 103°29'5 9.9
2018-May-13 18:30N 01°11' E 103°25'5 9.6
2018-May-13 17:59N 01°13' E 103°21'5 9.5
2018-May-13 17:27N 01°17' E 103°17'4 9.3
2018-May-13 16:59N 01°20' E 103°14'5 9.6
2018-May-13 16:28N 01°23' E 103°10'  
Track history (hours):
 
Tides and Currents Weather Stations Pressure Air Temp Water Temp Dewpoint Dewpoint Depression Visibility Wind Speed Wind Dir Waves Ship Positions

King Barley

Last reported at 2018-May-19 14:35 UTC. Time now 2018-May-25 02:52 UTC.
Position N 22°30' E 119°03'.

Length 229 m; draft 13.3 m.

Type: Cargo ship. MMSI: 373049000.

Date/timePositionNaut miles runAvg speedWind from/ knotsBaromVisibWave heightAir tempDewpointWater temp
2018-May-19 14:35N 22°30' E 119°03'713.1
2018-May-19 14:04N 22°25' E 118°58'113.3
2018-May-19 14:00N 22°24' E 118°57'  
2018-May-14 13:26N 01°25' E 104°29'511.6
2018-May-14 12:59N 01°22' E 104°25'511.1
2018-May-14 12:29N 01°18' E 104°21'610.2
2018-May-14 11:55N 01°17' E 104°15'511.1
2018-May-14 11:29N 01°16' E 104°10'611.2
2018-May-14 10:58N 01°15' E 104°05'5 9.8
2018-May-14 10:31N 01°15' E 104°00'2 4.6
2018-May-14 09:59N 01°17' E 103°58'0 0.0
2018-May-14 09:30N 01°17' E 103°58'0 0.1
2018-May-14 08:51N 01°17' E 103°58'0 0.3
2018-May-14 08:25N 01°17' E 103°58'0 0.2
2018-May-14 07:43N 01°17' E 103°58'0 0.1
2018-May-14 07:28N 01°17' E 103°58'0 0.1
2018-May-14 06:58N 01°17' E 103°59'0 0.0
2018-May-14 06:22N 01°17' E 103°59'0 0.0
2018-May-14 05:58N 01°17' E 103°59'0 0.1
2018-May-14 05:19N 01°17' E 103°58'0 0.2
2018-May-14 04:58N 01°17' E 103°58'0 0.3
2018-May-14 04:30N 01°17' E 103°58'0 0.1
2018-May-14 03:37N 01°17' E 103°58'0 0.0
2018-May-14 03:28N 01°17' E 103°58'0 0.0
2018-May-14 02:55N 01°17' E 103°58'0 0.0
2018-May-14 02:25N 01°17' E 103°58'0 0.0
2018-May-14 01:57N 01°17' E 103°58'0 0.0
2018-May-14 01:25N 01°17' E 103°58'0 0.0
2018-May-14 00:43N 01°17' E 103°58'0 0.0
2018-May-14 00:28N 01°17' E 103°58'0 0.1
2018-May-13 23:52N 01°17' E 103°58'0 0.5
2018-May-13 23:30N 01°17' E 103°58'2 3.3
2018-May-13 23:00N 01°16' E 103°57'2 4.1
2018-May-13 22:30N 01°14' E 103°56'3 6.7
2018-May-13 22:00N 01°12' E 103°54'4 7.9
2018-May-13 21:30N 01°11' E 103°50'4 8.1
2018-May-13 21:00N 01°08' E 103°47'610.7
2018-May-13 20:29N 01°05' E 103°42'5 9.2
2018-May-13 19:59N 01°03' E 103°38'511.1
2018-May-13 19:30N 01°06' E 103°33'5 9.4
2018-May-13 18:59N 01°08' E 103°29'5 9.9
2018-May-13 18:30N 01°11' E 103°25'5 9.6
2018-May-13 17:59N 01°13' E 103°21'5 9.5
2018-May-13 17:27N 01°17' E 103°17'4 9.3
2018-May-13 16:59N 01°20' E 103°14'5 9.6
2018-May-13 16:28N 01°23' E 103°10'  

Dump ship's entire track history